KQA515 DGAA-HKJK
Flight info
| Callsign | KQA515 |
|---|---|
| Flight time | 4h 50m |
| Altitude | 39000 |
| Route | EREKA1D EREKA DCT ENEVO UP685 DLA UR984 NLY UL434 IPEXA/N0485F410 UL434 NN UL433 NAKAT NAKAT3C |
| Aircraft | B788/H-SDE1E2E3FGHIJ2J3J4J5M1RWXYZ/LB1D1 |
Departure
| Time | 2026-04-23 11:41 |
|---|---|
| Airport | Kotoka International Airport (DGAA) |
Arrival
| Time | 2026-04-23 16:32 |
|---|---|
| Airport | Jomo Kenyatta International Airport (HKJK) |
| Time | Latitude | Longitude | Altitude | Speed | Heading |
|---|---|---|---|---|---|
| 2026-04-23 11:11 | 5.60283 | -0.17143 | 210 ft | 0 kts | 292° |
| 2026-04-23 11:27 | 5.60280 | -0.17137 | 210 ft | 2 kts | 292° |
| 2026-04-23 11:28 | 5.60274 | -0.17122 | 210 ft | 2 kts | 292° |
| 2026-04-23 11:28 | 5.60269 | -0.17108 | 210 ft | 2 kts | 292° |
| 2026-04-23 11:28 | 5.60263 | -0.17093 | 210 ft | 2 kts | 292° |
| 2026-04-23 11:28 | 5.60255 | -0.17081 | 210 ft | 2 kts | 312° |
| 2026-04-23 11:29 | 5.60244 | -0.17070 | 210 ft | 2 kts | 324° |
| 2026-04-23 11:29 | 5.60233 | -0.17064 | 210 ft | 2 kts | 347° |
| 2026-04-23 11:29 | 5.60218 | -0.17062 | 210 ft | 2 kts | 0° |
| 2026-04-23 11:29 | 5.60204 | -0.17063 | 210 ft | 2 kts | 18° |
| 2026-04-23 11:30 | 5.60191 | -0.17069 | 210 ft | 2 kts | 22° |
| 2026-04-23 11:30 | 5.60180 | -0.17073 | 210 ft | 0 kts | 22° |
| 2026-04-23 11:32 | 5.60181 | -0.17073 | 210 ft | 0 kts | 22° |
| 2026-04-23 11:32 | 5.60190 | -0.17069 | 210 ft | 4 kts | 22° |
| 2026-04-23 11:32 | 5.60229 | -0.17053 | 210 ft | 9 kts | 22° |
| 2026-04-23 11:33 | 5.60299 | -0.17024 | 210 ft | 13 kts | 22° |
| 2026-04-23 11:33 | 5.60395 | -0.16984 | 210 ft | 17 kts | 22° |
| 2026-04-23 11:33 | 5.60518 | -0.16933 | 210 ft | 21 kts | 22° |
| 2026-04-23 11:33 | 5.60642 | -0.16882 | 210 ft | 9 kts | 22° |
| 2026-04-23 11:34 | 5.60716 | -0.16852 | 210 ft | 14 kts | 22° |
| 2026-04-23 11:34 | 5.60817 | -0.16809 | 210 ft | 18 kts | 22° |
| 2026-04-23 11:34 | 5.60946 | -0.16756 | 210 ft | 22 kts | 22° |
| 2026-04-23 11:34 | 5.61104 | -0.16691 | 210 ft | 26 kts | 22° |
| 2026-04-23 11:35 | 5.61275 | -0.16621 | 210 ft | 28 kts | 23° |
| 2026-04-23 11:35 | 5.61418 | -0.16562 | 210 ft | 15 kts | 21° |
| 2026-04-23 11:35 | 5.61526 | -0.16517 | 210 ft | 19 kts | 22° |
| 2026-04-23 11:35 | 5.61599 | -0.16482 | 210 ft | 9 kts | 44° |
| 2026-04-23 11:36 | 5.61617 | -0.16452 | 210 ft | 0 kts | 75° |
| 2026-04-23 11:37 | 5.61619 | -0.16440 | 210 ft | 4 kts | 82° |
| 2026-04-23 11:37 | 5.61613 | -0.16397 | 210 ft | 9 kts | 104° |
| 2026-04-23 11:37 | 5.61602 | -0.16323 | 210 ft | 13 kts | 77° |
| 2026-04-23 11:38 | 5.61667 | -0.16253 | 210 ft | 16 kts | 26° |
| 2026-04-23 11:38 | 5.61768 | -0.16211 | 210 ft | 15 kts | 21° |
| 2026-04-23 11:38 | 5.61826 | -0.16179 | 210 ft | 6 kts | 36° |
| 2026-04-23 11:38 | 5.61874 | -0.16163 | 210 ft | 6 kts | 344° |
| 2026-04-23 11:39 | 5.61888 | -0.16188 | 210 ft | 4 kts | 266° |
| 2026-04-23 11:39 | 5.61870 | -0.16206 | 210 ft | 4 kts | 196° |
| 2026-04-23 11:39 | 5.61834 | -0.16207 | 210 ft | 7 kts | 177° |
| 2026-04-23 11:39 | 5.61775 | -0.16210 | 210 ft | 10 kts | 192° |
| 2026-04-23 11:40 | 5.61747 | -0.16220 | 210 ft | 0 kts | 201° |
| 2026-04-23 11:41 | 5.61738 | -0.16223 | 210 ft | 11 kts | 202° |
| 2026-04-23 11:41 | 5.61324 | -0.16394 | 210 ft | 114 kts | 202° |
| 2026-04-23 11:41 | 5.60321 | -0.16810 | 234 ft | 191 kts | 204° |
| 2026-04-23 11:41 | 5.59007 | -0.17339 | 863 ft | 210 kts | 204° |
| 2026-04-23 11:42 | 5.57725 | -0.17830 | 2089 ft | 185 kts | 204° |
| 2026-04-23 11:42 | 5.56542 | -0.18216 | 2975 ft | 181 kts | 197° |
| 2026-04-23 11:42 | 5.55231 | -0.18175 | 3361 ft | 197 kts | 173° |
| 2026-04-23 11:42 | 5.53975 | -0.17574 | 3680 ft | 209 kts | 142° |
| 2026-04-23 11:43 | 5.53173 | -0.16352 | 4023 ft | 214 kts | 106° |
| 2026-04-23 11:43 | 5.53187 | -0.14913 | 4674 ft | 203 kts | 73° |
| 2026-04-23 11:43 | 5.53819 | -0.13688 | 5584 ft | 196 kts | 59° |
| 2026-04-23 11:43 | 5.54545 | -0.12500 | 6160 ft | 206 kts | 59° |
| 2026-04-23 11:44 | 5.55216 | -0.11175 | 6638 ft | 219 kts | 63° |
| 2026-04-23 11:44 | 5.55821 | -0.09727 | 7107 ft | 232 kts | 66° |
| 2026-04-23 11:44 | 5.56383 | -0.08172 | 7608 ft | 243 kts | 69° |
| 2026-04-23 11:44 | 5.56918 | -0.06537 | 8154 ft | 251 kts | 70° |
| 2026-04-23 11:45 | 5.57441 | -0.04833 | 8731 ft | 258 kts | 71° |
| 2026-04-23 11:45 | 5.57956 | -0.03089 | 9324 ft | 264 kts | 72° |
| 2026-04-23 11:45 | 5.58470 | -0.01303 | 9927 ft | 269 kts | 72° |
| 2026-04-23 11:45 | 5.58995 | 0.00549 | 10404 ft | 280 kts | 72° |
| 2026-04-23 11:46 | 5.59538 | 0.02480 | 10756 ft | 294 kts | 73° |
| 2026-04-23 11:46 | 5.60106 | 0.04508 | 11080 ft | 309 kts | 73° |
| 2026-04-23 11:46 | 5.60497 | 0.06680 | 11294 ft | 328 kts | 85° |
| 2026-04-23 11:46 | 5.60144 | 0.09010 | 11536 ft | 345 kts | 101° |
| 2026-04-23 11:47 | 5.59500 | 0.11340 | 11880 ft | 357 kts | 104° |
| 2026-04-23 11:47 | 5.58791 | 0.13772 | 12274 ft | 366 kts | 104° |
| 2026-04-23 11:47 | 5.58083 | 0.16253 | 12732 ft | 373 kts | 104° |
| 2026-04-23 11:47 | 5.57382 | 0.18775 | 13223 ft | 378 kts | 104° |
| 2026-04-23 11:48 | 5.56684 | 0.21344 | 13733 ft | 383 kts | 104° |
| 2026-04-23 11:48 | 5.55984 | 0.23949 | 14261 ft | 387 kts | 104° |
| 2026-04-23 11:48 | 5.55291 | 0.26544 | 14803 ft | 391 kts | 104° |
| 2026-04-23 11:48 | 5.54588 | 0.29189 | 15387 ft | 394 kts | 105° |
| 2026-04-23 11:49 | 5.53881 | 0.31854 | 15947 ft | 397 kts | 105° |
| 2026-04-23 11:49 | 5.53166 | 0.34549 | 16459 ft | 401 kts | 105° |
| 2026-04-23 11:49 | 5.52443 | 0.37273 | 16935 ft | 406 kts | 105° |
| 2026-04-23 11:49 | 5.51709 | 0.40036 | 17402 ft | 411 kts | 105° |
| 2026-04-23 11:50 | 5.50970 | 0.42822 | 17879 ft | 416 kts | 105° |
| 2026-04-23 11:50 | 5.50220 | 0.45643 | 18374 ft | 419 kts | 105° |
| 2026-04-23 11:50 | 5.49463 | 0.48496 | 18861 ft | 423 kts | 105° |
| 2026-04-23 11:50 | 5.48701 | 0.51364 | 19319 ft | 427 kts | 105° |
| 2026-04-23 11:51 | 5.47931 | 0.54266 | 19820 ft | 430 kts | 105° |
| 2026-04-23 11:51 | 5.47163 | 0.57163 | 20368 ft | 431 kts | 105° |
| 2026-04-23 11:51 | 5.46397 | 0.60048 | 20943 ft | 432 kts | 105° |
| 2026-04-23 11:51 | 5.45621 | 0.62965 | 21515 ft | 432 kts | 105° |
| 2026-04-23 11:52 | 5.44844 | 0.65884 | 22032 ft | 434 kts | 105° |
| 2026-04-23 11:52 | 5.44063 | 0.68815 | 22484 ft | 437 kts | 105° |
| 2026-04-23 11:52 | 5.43275 | 0.71777 | 22899 ft | 441 kts | 104° |
| 2026-04-23 11:52 | 5.42483 | 0.74757 | 23314 ft | 444 kts | 104° |
| 2026-04-23 11:53 | 5.41682 | 0.77773 | 23725 ft | 448 kts | 104° |
| 2026-04-23 11:53 | 5.40877 | 0.80805 | 24131 ft | 451 kts | 103° |
| 2026-04-23 11:53 | 5.40065 | 0.83863 | 24519 ft | 455 kts | 103° |
| 2026-04-23 11:53 | 5.39257 | 0.86906 | 24872 ft | 459 kts | 103° |
| 2026-04-23 11:54 | 5.38431 | 0.90018 | 25251 ft | 463 kts | 103° |
| 2026-04-23 11:54 | 5.37598 | 0.93152 | 25739 ft | 463 kts | 103° |
| 2026-04-23 11:54 | 5.36766 | 0.96279 | 26251 ft | 463 kts | 103° |
| 2026-04-23 11:54 | 5.35938 | 0.99393 | 26738 ft | 463 kts | 103° |
| 2026-04-23 11:55 | 5.35104 | 1.02526 | 27170 ft | 465 kts | 103° |
| 2026-04-23 11:55 | 5.34264 | 1.05684 | 27562 ft | 467 kts | 103° |
| 2026-04-23 11:55 | 5.33425 | 1.08834 | 27945 ft | 469 kts | 103° |
| 2026-04-23 11:55 | 5.32579 | 1.12010 | 28353 ft | 470 kts | 103° |
| 2026-04-23 11:56 | 5.31734 | 1.15184 | 28786 ft | 471 kts | 104° |
| 2026-04-23 11:56 | 5.30898 | 1.18320 | 29211 ft | 472 kts | 104° |
| 2026-04-23 11:56 | 5.30050 | 1.21502 | 29610 ft | 473 kts | 104° |
| 2026-04-23 11:56 | 5.29195 | 1.24707 | 29963 ft | 476 kts | 104° |
| 2026-04-23 11:57 | 5.28335 | 1.27931 | 30283 ft | 478 kts | 105° |
| 2026-04-23 11:57 | 5.27472 | 1.31165 | 30603 ft | 481 kts | 105° |
| 2026-04-23 11:57 | 5.26602 | 1.34424 | 30949 ft | 484 kts | 105° |
| 2026-04-23 11:57 | 5.25729 | 1.37696 | 31320 ft | 486 kts | 106° |
| 2026-04-23 11:58 | 5.24854 | 1.40970 | 31687 ft | 488 kts | 106° |
| 2026-04-23 11:58 | 5.23985 | 1.44225 | 32044 ft | 490 kts | 106° |
| 2026-04-23 11:58 | 5.23099 | 1.47535 | 32483 ft | 491 kts | 106° |
| 2026-04-23 11:58 | 5.22213 | 1.50845 | 32961 ft | 491 kts | 106° |
| 2026-04-23 11:59 | 5.21326 | 1.54160 | 33453 ft | 491 kts | 106° |
| 2026-04-23 11:59 | 5.20444 | 1.57469 | 33952 ft | 490 kts | 106° |
| 2026-04-23 11:59 | 5.19579 | 1.60790 | 34453 ft | 490 kts | 106° |
| 2026-04-23 11:59 | 5.18730 | 1.64091 | 34950 ft | 489 kts | 105° |
| 2026-04-23 12:00 | 5.17883 | 1.67396 | 35439 ft | 488 kts | 105° |
| 2026-04-23 12:00 | 5.17042 | 1.70684 | 35917 ft | 487 kts | 105° |
| 2026-04-23 12:00 | 5.16199 | 1.73978 | 36383 ft | 486 kts | 105° |
| 2026-04-23 12:00 | 5.15369 | 1.77217 | 36815 ft | 485 kts | 105° |
| 2026-04-23 12:01 | 5.14528 | 1.80499 | 37261 ft | 484 kts | 105° |
| 2026-04-23 12:01 | 5.13688 | 1.83773 | 37701 ft | 483 kts | 105° |
| 2026-04-23 12:01 | 5.12851 | 1.87032 | 38127 ft | 482 kts | 105° |
| 2026-04-23 12:01 | 5.12017 | 1.90283 | 38524 ft | 480 kts | 105° |
| 2026-04-23 12:02 | 5.11183 | 1.93532 | 38745 ft | 480 kts | 105° |
| 2026-04-23 12:02 | 5.10351 | 1.96778 | 38852 ft | 478 kts | 105° |
| 2026-04-23 12:02 | 5.09520 | 2.00013 | 38860 ft | 478 kts | 105° |
| 2026-04-23 12:03 | 5.07875 | 2.06419 | 38872 ft | 476 kts | 105° |
| 2026-04-23 12:03 | 5.06219 | 2.12865 | 38882 ft | 477 kts | 105° |
| 2026-04-23 12:04 | 5.04843 | 2.18222 | 38875 ft | 477 kts | 105° |
| 2026-04-23 12:04 | 5.03187 | 2.24672 | 38872 ft | 476 kts | 105° |
| 2026-04-23 12:05 | 5.01546 | 2.31070 | 38883 ft | 477 kts | 105° |
| 2026-04-23 12:05 | 4.99893 | 2.37511 | 38871 ft | 477 kts | 105° |
| 2026-04-23 12:06 | 4.98239 | 2.43948 | 38877 ft | 477 kts | 105° |
| 2026-04-23 12:06 | 4.95757 | 2.53621 | 38874 ft | 477 kts | 105° |
| 2026-04-23 12:07 | 4.94101 | 2.60064 | 38874 ft | 477 kts | 105° |
| 2026-04-23 12:07 | 4.92445 | 2.66504 | 38883 ft | 477 kts | 105° |
| 2026-04-23 12:08 | 4.90787 | 2.72948 | 38876 ft | 478 kts | 105° |
| 2026-04-23 12:08 | 4.89116 | 2.79440 | 38879 ft | 477 kts | 105° |
| 2026-04-23 12:09 | 4.87441 | 2.85947 | 38872 ft | 478 kts | 105° |
| 2026-04-23 12:09 | 4.85758 | 2.92486 | 38879 ft | 478 kts | 105° |
| 2026-04-23 12:10 | 4.84093 | 2.98951 | 38879 ft | 478 kts | 105° |
| 2026-04-23 12:10 | 4.82407 | 3.05494 | 38870 ft | 478 kts | 105° |
| 2026-04-23 12:11 | 4.80752 | 3.11915 | 38882 ft | 478 kts | 105° |
| 2026-04-23 12:11 | 4.79083 | 3.18385 | 38875 ft | 478 kts | 105° |
| 2026-04-23 12:12 | 4.77418 | 3.24839 | 38872 ft | 478 kts | 105° |
| 2026-04-23 12:12 | 4.75748 | 3.31310 | 38883 ft | 478 kts | 105° |
| 2026-04-23 12:13 | 4.74090 | 3.37731 | 38871 ft | 479 kts | 105° |
| 2026-04-23 12:13 | 4.72417 | 3.44208 | 38877 ft | 478 kts | 105° |
| 2026-04-23 12:14 | 4.70745 | 3.50678 | 38881 ft | 479 kts | 105° |
| 2026-04-23 12:14 | 4.69082 | 3.57112 | 38869 ft | 479 kts | 105° |
| 2026-04-23 12:15 | 4.67410 | 3.63579 | 38881 ft | 479 kts | 105° |
| 2026-04-23 12:15 | 4.65742 | 3.70040 | 38904 ft | 481 kts | 106° |
| 2026-04-23 12:16 | 4.64899 | 3.73302 | 39045 ft | 482 kts | 107° |
| 2026-04-23 12:16 | 4.64049 | 3.76578 | 39070 ft | 487 kts | 107° |
| 2026-04-23 12:16 | 4.62329 | 3.83205 | 39088 ft | 495 kts | 106° |
| 2026-04-23 12:17 | 4.60600 | 3.89878 | 39083 ft | 495 kts | 106° |
| 2026-04-23 12:17 | 4.58879 | 3.96525 | 39088 ft | 494 kts | 106° |
| 2026-04-23 12:18 | 4.57151 | 4.03191 | 39100 ft | 495 kts | 106° |
| 2026-04-23 12:18 | 4.55414 | 4.09887 | 39098 ft | 496 kts | 106° |
| 2026-04-23 12:19 | 4.53679 | 4.16576 | 39101 ft | 496 kts | 106° |
| 2026-04-23 12:19 | 4.51935 | 4.23287 | 39121 ft | 501 kts | 106° |
| 2026-04-23 12:20 | 4.50168 | 4.30095 | 39161 ft | 506 kts | 106° |
| 2026-04-23 12:20 | 4.48398 | 4.36915 | 39174 ft | 505 kts | 106° |
| 2026-04-23 12:21 | 4.46638 | 4.43690 | 39175 ft | 504 kts | 106° |
| 2026-04-23 12:21 | 4.44871 | 4.50488 | 39164 ft | 505 kts | 105° |
| 2026-04-23 12:22 | 4.43642 | 4.57427 | 39179 ft | 506 kts | 99° |
| 2026-04-23 12:22 | 4.42853 | 4.64459 | 39169 ft | 507 kts | 97° |
| 2026-04-23 12:23 | 4.42202 | 4.71485 | 39168 ft | 506 kts | 96° |
| 2026-04-23 12:23 | 4.41595 | 4.78234 | 39179 ft | 506 kts | 96° |
| 2026-04-23 12:24 | 4.40956 | 4.85278 | 39167 ft | 507 kts | 96° |
| 2026-04-23 12:24 | 4.40318 | 4.92272 | 39171 ft | 506 kts | 96° |
| 2026-04-23 12:25 | 4.39675 | 4.99303 | 39177 ft | 507 kts | 96° |
| 2026-04-23 12:25 | 4.39034 | 5.06297 | 39165 ft | 507 kts | 96° |
| 2026-04-23 12:26 | 4.38389 | 5.13331 | 39174 ft | 506 kts | 96° |
| 2026-04-23 12:26 | 4.37744 | 5.20360 | 39175 ft | 507 kts | 96° |
| 2026-04-23 12:27 | 4.37097 | 5.27401 | 39164 ft | 506 kts | 96° |
| 2026-04-23 12:27 | 4.36450 | 5.34426 | 39176 ft | 506 kts | 96° |
| 2026-04-23 12:28 | 4.35803 | 5.41460 | 39172 ft | 507 kts | 96° |
| 2026-04-23 12:28 | 4.35154 | 5.48494 | 39166 ft | 506 kts | 96° |
| 2026-04-23 12:29 | 4.34509 | 5.55482 | 39178 ft | 506 kts | 96° |
| 2026-04-23 12:29 | 4.33859 | 5.62528 | 39169 ft | 507 kts | 96° |
| 2026-04-23 12:30 | 4.33203 | 5.69555 | 39169 ft | 506 kts | 96° |
| 2026-04-23 12:30 | 4.32539 | 5.76573 | 39163 ft | 504 kts | 97° |
| 2026-04-23 12:31 | 4.32210 | 5.80048 | 39032 ft | 494 kts | 97° |
| 2026-04-23 12:31 | 4.31892 | 5.83399 | 38998 ft | 481 kts | 97° |
| 2026-04-23 12:31 | 4.31264 | 5.90000 | 38989 ft | 476 kts | 97° |
| 2026-04-23 12:32 | 4.30627 | 5.96677 | 39006 ft | 484 kts | 97° |
| 2026-04-23 12:32 | 4.29987 | 6.03418 | 38989 ft | 484 kts | 97° |
| 2026-04-23 12:33 | 4.29357 | 6.10081 | 38994 ft | 483 kts | 97° |
| 2026-04-23 12:33 | 4.28723 | 6.16792 | 39000 ft | 484 kts | 97° |
| 2026-04-23 12:34 | 4.28088 | 6.23513 | 38988 ft | 484 kts | 97° |
| 2026-04-23 12:34 | 4.27453 | 6.30227 | 38998 ft | 483 kts | 97° |
| 2026-04-23 12:35 | 4.26822 | 6.36897 | 38996 ft | 484 kts | 97° |
| 2026-04-23 12:35 | 4.26183 | 6.43621 | 38988 ft | 483 kts | 97° |
| 2026-04-23 12:36 | 4.25647 | 6.49205 | 39000 ft | 483 kts | 97° |
| 2026-04-23 12:36 | 4.24893 | 6.57018 | 38992 ft | 484 kts | 97° |
| 2026-04-23 12:37 | 4.24351 | 6.62638 | 38990 ft | 483 kts | 97° |
| 2026-04-23 12:37 | 4.23706 | 6.69305 | 39001 ft | 484 kts | 97° |
| 2026-04-23 12:38 | 4.23054 | 6.76017 | 38990 ft | 484 kts | 97° |
| 2026-04-23 12:38 | 4.22401 | 6.82726 | 38995 ft | 483 kts | 97° |
| 2026-04-23 12:39 | 4.21747 | 6.89443 | 38999 ft | 484 kts | 97° |
| 2026-04-23 12:39 | 4.21096 | 6.96117 | 38988 ft | 484 kts | 97° |
| 2026-04-23 12:40 | 4.20441 | 7.02829 | 38999 ft | 483 kts | 97° |
| 2026-04-23 12:40 | 4.19787 | 7.09532 | 38995 ft | 484 kts | 97° |
| 2026-04-23 12:41 | 4.19137 | 7.16195 | 38985 ft | 479 kts | 97° |
| 2026-04-23 12:41 | 4.18487 | 7.22845 | 39000 ft | 480 kts | 97° |
| 2026-04-23 12:42 | 4.17825 | 7.29589 | 39001 ft | 493 kts | 97° |
| 2026-04-23 12:42 | 4.17145 | 7.36520 | 38984 ft | 504 kts | 97° |
| 2026-04-23 12:43 | 4.16463 | 7.43479 | 38996 ft | 504 kts | 97° |
| 2026-04-23 12:43 | 4.15777 | 7.50475 | 38997 ft | 504 kts | 97° |
| 2026-04-23 12:44 | 4.15094 | 7.57444 | 38989 ft | 501 kts | 97° |
| 2026-04-23 12:44 | 4.14408 | 7.64408 | 39000 ft | 502 kts | 97° |
| 2026-04-23 12:45 | 4.13721 | 7.71385 | 38992 ft | 503 kts | 97° |
| 2026-04-23 12:45 | 4.13039 | 7.78308 | 38992 ft | 502 kts | 97° |
| 2026-04-23 12:46 | 4.12361 | 7.85229 | 38967 ft | 495 kts | 97° |
| 2026-04-23 12:46 | 4.11827 | 7.92096 | 38942 ft | 495 kts | 96° |
| 2026-04-23 12:47 | 4.11364 | 7.98990 | 38928 ft | 496 kts | 96° |
| 2026-04-23 12:47 | 4.10909 | 8.05838 | 38934 ft | 496 kts | 96° |
| 2026-04-23 12:48 | 4.10447 | 8.12733 | 38930 ft | 496 kts | 96° |
| 2026-04-23 12:48 | 4.09982 | 8.19638 | 38921 ft | 496 kts | 96° |
| 2026-04-23 12:49 | 4.09516 | 8.26537 | 38929 ft | 496 kts | 96° |
| 2026-04-23 12:49 | 4.09050 | 8.33428 | 38919 ft | 496 kts | 96° |
| 2026-04-23 12:50 | 4.08586 | 8.40295 | 38914 ft | 496 kts | 96° |
| 2026-04-23 12:50 | 4.08119 | 8.47181 | 38921 ft | 496 kts | 96° |
| 2026-04-23 12:51 | 4.07653 | 8.54039 | 38908 ft | 496 kts | 96° |
| 2026-04-23 12:51 | 4.07183 | 8.60962 | 38910 ft | 496 kts | 96° |
| 2026-04-23 12:52 | 4.06717 | 8.67811 | 38915 ft | 496 kts | 96° |
| 2026-04-23 12:52 | 4.06246 | 8.74716 | 38900 ft | 496 kts | 96° |
| 2026-04-23 12:53 | 4.05775 | 8.81626 | 38891 ft | 496 kts | 96° |
| 2026-04-23 12:53 | 4.05306 | 8.88487 | 38901 ft | 497 kts | 96° |
| 2026-04-23 12:54 | 4.04834 | 8.95389 | 38891 ft | 497 kts | 96° |
| 2026-04-23 12:54 | 4.04360 | 9.02304 | 38882 ft | 498 kts | 96° |
| 2026-04-23 12:55 | 4.03888 | 9.09202 | 38889 ft | 498 kts | 96° |
| 2026-04-23 12:55 | 4.03411 | 9.16136 | 38878 ft | 499 kts | 96° |
| 2026-04-23 12:56 | 4.02935 | 9.23071 | 38876 ft | 499 kts | 96° |
| 2026-04-23 12:56 | 4.02462 | 9.29943 | 38884 ft | 499 kts | 96° |
| 2026-04-23 12:57 | 4.01984 | 9.36876 | 38875 ft | 499 kts | 96° |
| 2026-04-23 12:57 | 4.01505 | 9.43818 | 38873 ft | 499 kts | 96° |
| 2026-04-23 12:58 | 4.01027 | 9.50744 | 38884 ft | 499 kts | 96° |
| 2026-04-23 12:58 | 4.00547 | 9.57689 | 38872 ft | 499 kts | 96° |
| 2026-04-23 12:59 | 4.00066 | 9.64633 | 38877 ft | 499 kts | 96° |
| 2026-04-23 12:59 | 3.99583 | 9.71588 | 38883 ft | 500 kts | 96° |
| 2026-04-23 13:00 | 3.98802 | 9.78436 | 38872 ft | 498 kts | 100° |
| 2026-04-23 13:00 | 3.97797 | 9.85322 | 38879 ft | 498 kts | 101° |
| 2026-04-23 13:01 | 3.96777 | 9.92151 | 38887 ft | 499 kts | 101° |
| 2026-04-23 13:01 | 3.95757 | 9.99032 | 38877 ft | 499 kts | 101° |
| 2026-04-23 13:02 | 3.94742 | 10.05911 | 38889 ft | 499 kts | 101° |
| 2026-04-23 13:02 | 3.93726 | 10.12804 | 38894 ft | 500 kts | 101° |
| 2026-04-23 13:03 | 3.92717 | 10.19655 | 38886 ft | 500 kts | 101° |
| 2026-04-23 13:03 | 3.91697 | 10.26576 | 38890 ft | 498 kts | 101° |
| 2026-04-23 13:04 | 3.90693 | 10.33390 | 38873 ft | 497 kts | 101° |
| 2026-04-23 13:04 | 3.89680 | 10.40256 | 38874 ft | 498 kts | 101° |
| 2026-04-23 13:05 | 3.88670 | 10.47105 | 38896 ft | 496 kts | 100° |
| 2026-04-23 13:05 | 3.87664 | 10.53930 | 38925 ft | 495 kts | 100° |
| 2026-04-23 13:06 | 3.86159 | 10.64131 | 38954 ft | 495 kts | 100° |
| 2026-04-23 13:07 | 3.85148 | 10.70966 | 38967 ft | 495 kts | 100° |
| 2026-04-23 13:07 | 3.84139 | 10.77789 | 38984 ft | 494 kts | 100° |
| 2026-04-23 13:08 | 3.83128 | 10.84612 | 38999 ft | 495 kts | 100° |
| 2026-04-23 13:08 | 3.82118 | 10.91427 | 38995 ft | 495 kts | 100° |
| 2026-04-23 13:09 | 3.81114 | 10.98203 | 38988 ft | 494 kts | 100° |
| 2026-04-23 13:09 | 3.80104 | 11.05014 | 39001 ft | 495 kts | 100° |
| 2026-04-23 13:10 | 3.79091 | 11.11841 | 38992 ft | 495 kts | 100° |
| 2026-04-23 13:10 | 3.78079 | 11.18658 | 38991 ft | 494 kts | 100° |
| 2026-04-23 13:11 | 3.77069 | 11.25458 | 39001 ft | 494 kts | 100° |
| 2026-04-23 13:11 | 3.76059 | 11.32253 | 38990 ft | 494 kts | 100° |
| 2026-04-23 13:12 | 3.75047 | 11.39057 | 38993 ft | 494 kts | 100° |
| 2026-04-23 13:12 | 3.74033 | 11.45874 | 39001 ft | 494 kts | 100° |
| 2026-04-23 13:13 | 3.73390 | 11.50193 | 38993 ft | 494 kts | 100° |
| 2026-04-23 13:13 | 3.72687 | 11.54766 | 38988 ft | 494 kts | 101° |
| 2026-04-23 13:14 | 3.72517 | 11.55705 | 38989 ft | 494 kts | 102° |
| 2026-04-23 13:14 | 3.72081 | 11.57938 | 38992 ft | 494 kts | 103° |
| 2026-04-23 13:15 | 3.70633 | 11.64665 | 39000 ft | 494 kts | 104° |
| 2026-04-23 13:15 | 3.70452 | 11.65486 | 39000 ft | 494 kts | 104° |
| 2026-04-23 13:16 | 3.69136 | 11.71426 | 38990 ft | 494 kts | 104° |
| 2026-04-23 13:18 | 3.67700 | 11.77948 | 38988 ft | 493 kts | 104° |
| 2026-04-23 13:19 | 3.66238 | 11.84622 | 39002 ft | 494 kts | 104° |
| 2026-04-23 13:19 | 3.64767 | 11.91338 | 38992 ft | 494 kts | 104° |
| 2026-04-23 13:20 | 3.63310 | 11.97988 | 38990 ft | 493 kts | 104° |
| 2026-04-23 13:23 | 3.61929 | 12.04289 | 38998 ft | 493 kts | 104° |
| 2026-04-23 13:23 | 3.60458 | 12.11001 | 38997 ft | 493 kts | 104° |
| 2026-04-23 13:24 | 3.59235 | 12.16579 | 38989 ft | 493 kts | 104° |
| 2026-04-23 13:24 | 3.57865 | 12.22822 | 38997 ft | 493 kts | 103° |
| 2026-04-23 13:25 | 3.56390 | 12.29544 | 39003 ft | 493 kts | 103° |
| 2026-04-23 13:25 | 3.54922 | 12.36228 | 38990 ft | 493 kts | 103° |
| 2026-04-23 13:26 | 3.53451 | 12.42926 | 38993 ft | 493 kts | 103° |
| 2026-04-23 13:26 | 3.51973 | 12.49657 | 39001 ft | 494 kts | 103° |
| 2026-04-23 13:27 | 3.50497 | 12.56370 | 38989 ft | 494 kts | 103° |
| 2026-04-23 13:27 | 3.49029 | 12.63047 | 38996 ft | 493 kts | 103° |
| 2026-04-23 13:28 | 3.47559 | 12.69734 | 38982 ft | 493 kts | 103° |
| 2026-04-23 13:28 | 3.46077 | 12.76468 | 39001 ft | 493 kts | 103° |
| 2026-04-23 13:29 | 3.44598 | 12.83188 | 38994 ft | 494 kts | 103° |
| 2026-04-23 13:29 | 3.43125 | 12.89878 | 38988 ft | 493 kts | 103° |
| 2026-04-23 13:30 | 3.41645 | 12.96594 | 39001 ft | 493 kts | 103° |
| 2026-04-23 13:30 | 3.40167 | 13.03303 | 38992 ft | 493 kts | 103° |
| 2026-04-23 13:31 | 3.38696 | 13.09977 | 38991 ft | 493 kts | 103° |
| 2026-04-23 13:31 | 3.37216 | 13.16686 | 39001 ft | 494 kts | 103° |
| 2026-04-23 13:32 | 3.35736 | 13.23394 | 38989 ft | 494 kts | 103° |
| 2026-04-23 13:32 | 3.34256 | 13.30103 | 38996 ft | 493 kts | 103° |
| 2026-04-23 13:33 | 3.32777 | 13.36804 | 39000 ft | 493 kts | 103° |
| 2026-04-23 13:33 | 3.31296 | 13.43510 | 38988 ft | 493 kts | 103° |
| 2026-04-23 13:34 | 3.29821 | 13.50188 | 38998 ft | 492 kts | 103° |
| 2026-04-23 13:34 | 3.28346 | 13.56865 | 38997 ft | 492 kts | 103° |
| 2026-04-23 13:35 | 3.26866 | 13.63559 | 38988 ft | 492 kts | 103° |
| 2026-04-23 13:35 | 3.25400 | 13.70187 | 39000 ft | 492 kts | 103° |
| 2026-04-23 13:36 | 3.23920 | 13.76881 | 38994 ft | 492 kts | 103° |
| 2026-04-23 13:36 | 3.22438 | 13.83578 | 38988 ft | 492 kts | 103° |
| 2026-04-23 13:37 | 3.20959 | 13.90260 | 39001 ft | 493 kts | 103° |
| 2026-04-23 13:37 | 3.19482 | 13.96932 | 38993 ft | 493 kts | 103° |
| 2026-04-23 13:38 | 3.17997 | 14.03637 | 38989 ft | 493 kts | 103° |
| 2026-04-23 13:38 | 3.16510 | 14.10348 | 39001 ft | 493 kts | 103° |
| 2026-04-23 13:39 | 3.15032 | 14.17020 | 38991 ft | 494 kts | 103° |
| 2026-04-23 13:39 | 3.13544 | 14.23732 | 38991 ft | 494 kts | 103° |
| 2026-04-23 13:40 | 3.12051 | 14.30461 | 39002 ft | 495 kts | 103° |
| 2026-04-23 13:40 | 3.10553 | 14.37212 | 38989 ft | 498 kts | 103° |
| 2026-04-23 13:41 | 3.09061 | 14.43943 | 38996 ft | 498 kts | 103° |
| 2026-04-23 13:41 | 3.07558 | 14.50715 | 38998 ft | 498 kts | 103° |
| 2026-04-23 13:42 | 3.06052 | 14.57497 | 38988 ft | 498 kts | 103° |
| 2026-04-23 13:42 | 3.04548 | 14.64269 | 39000 ft | 499 kts | 103° |
| 2026-04-23 13:43 | 3.03049 | 14.71017 | 38993 ft | 499 kts | 103° |
| 2026-04-23 13:43 | 3.01545 | 14.77782 | 38990 ft | 499 kts | 103° |
| 2026-04-23 13:44 | 3.00032 | 14.84588 | 39001 ft | 500 kts | 103° |
| 2026-04-23 13:44 | 2.98527 | 14.91363 | 38992 ft | 495 kts | 103° |
| 2026-04-23 13:45 | 2.97043 | 14.98026 | 38990 ft | 495 kts | 103° |
| 2026-04-23 13:45 | 2.95544 | 15.04761 | 38993 ft | 494 kts | 104° |
| 2026-04-23 13:46 | 2.94045 | 15.11492 | 38978 ft | 494 kts | 104° |
| 2026-04-23 13:46 | 2.92551 | 15.18203 | 38987 ft | 494 kts | 104° |
| 2026-04-23 13:47 | 2.91062 | 15.24889 | 38987 ft | 495 kts | 104° |
| 2026-04-23 13:47 | 2.89564 | 15.31612 | 38979 ft | 495 kts | 104° |
| 2026-04-23 13:48 | 2.88066 | 15.38335 | 38991 ft | 495 kts | 104° |
| 2026-04-23 13:48 | 2.86568 | 15.45053 | 38983 ft | 495 kts | 104° |
| 2026-04-23 13:49 | 2.85069 | 15.51779 | 38979 ft | 496 kts | 104° |
| 2026-04-23 13:49 | 2.83574 | 15.58482 | 38988 ft | 496 kts | 104° |
| 2026-04-23 13:50 | 2.82070 | 15.65224 | 38978 ft | 496 kts | 104° |
| 2026-04-23 13:50 | 2.80563 | 15.71970 | 38983 ft | 495 kts | 103° |
| 2026-04-23 13:51 | 2.79063 | 15.78695 | 38999 ft | 496 kts | 103° |
| 2026-04-23 13:51 | 2.77560 | 15.85430 | 38995 ft | 496 kts | 103° |
| 2026-04-23 13:52 | 2.76065 | 15.92125 | 38989 ft | 495 kts | 103° |
| 2026-04-23 13:52 | 2.74563 | 15.98851 | 39001 ft | 496 kts | 103° |
| 2026-04-23 13:53 | 2.73057 | 16.05589 | 38991 ft | 496 kts | 103° |
| 2026-04-23 13:53 | 2.71550 | 16.12330 | 38992 ft | 495 kts | 103° |
| 2026-04-23 13:54 | 2.70053 | 16.19026 | 39000 ft | 496 kts | 103° |
| 2026-04-23 13:54 | 2.68547 | 16.25766 | 38982 ft | 497 kts | 104° |
| 2026-04-23 13:55 | 2.67044 | 16.32477 | 38969 ft | 497 kts | 104° |
| 2026-04-23 13:55 | 2.65526 | 16.39258 | 38968 ft | 497 kts | 104° |
| 2026-04-23 13:56 | 2.64024 | 16.45971 | 38983 ft | 497 kts | 104° |
| 2026-04-23 13:56 | 2.62789 | 16.51484 | 38976 ft | 497 kts | 104° |
| 2026-04-23 13:57 | 2.61276 | 16.58243 | 38962 ft | 497 kts | 104° |
| 2026-04-23 13:57 | 2.59762 | 16.65004 | 38968 ft | 497 kts | 104° |
| 2026-04-23 13:58 | 2.58247 | 16.71764 | 38965 ft | 498 kts | 104° |
| 2026-04-23 13:58 | 2.56732 | 16.78523 | 38955 ft | 498 kts | 104° |
| 2026-04-23 13:59 | 2.55219 | 16.85272 | 38964 ft | 498 kts | 104° |
| 2026-04-23 13:59 | 2.53705 | 16.92028 | 38952 ft | 498 kts | 104° |
| 2026-04-23 14:00 | 2.52443 | 16.97654 | 38946 ft | 498 kts | 104° |
| 2026-04-23 14:00 | 2.50678 | 17.05524 | 38952 ft | 499 kts | 104° |
| 2026-04-23 14:01 | 2.49157 | 17.12302 | 38938 ft | 499 kts | 104° |
| 2026-04-23 14:01 | 2.47637 | 17.19072 | 38938 ft | 499 kts | 104° |
| 2026-04-23 14:02 | 2.46123 | 17.25815 | 38936 ft | 499 kts | 104° |
| 2026-04-23 14:02 | 2.44597 | 17.32618 | 38917 ft | 501 kts | 104° |
| 2026-04-23 14:03 | 2.43066 | 17.39432 | 38905 ft | 501 kts | 104° |
| 2026-04-23 14:03 | 2.41538 | 17.46235 | 38907 ft | 501 kts | 104° |
| 2026-04-23 14:04 | 2.40007 | 17.53044 | 38904 ft | 502 kts | 104° |
| 2026-04-23 14:04 | 2.38475 | 17.59861 | 38894 ft | 502 kts | 104° |
| 2026-04-23 14:05 | 2.38258 | 17.60827 | 38895 ft | 502 kts | 104° |
| 2026-04-23 14:06 | 2.37933 | 17.62273 | 38896 ft | 502 kts | 104° |
| 2026-04-23 14:06 | 2.36403 | 17.69080 | 38904 ft | 502 kts | 104° |
| 2026-04-23 14:07 | 2.34874 | 17.75914 | 38894 ft | 503 kts | 104° |
| 2026-04-23 14:07 | 2.32667 | 17.86123 | 38893 ft | 503 kts | 104° |
| 2026-04-23 14:08 | 2.31193 | 17.92976 | 38893 ft | 503 kts | 104° |
| 2026-04-23 14:08 | 2.29965 | 17.98676 | 38883 ft | 503 kts | 104° |
| 2026-04-23 14:09 | 2.28489 | 18.05523 | 38890 ft | 503 kts | 104° |
| 2026-04-23 14:09 | 2.26975 | 18.12376 | 38887 ft | 506 kts | 105° |
| 2026-04-23 14:10 | 2.25301 | 18.19215 | 38871 ft | 505 kts | 106° |
| 2026-04-23 14:10 | 2.23602 | 18.26006 | 38878 ft | 505 kts | 106° |
| 2026-04-23 14:11 | 2.21899 | 18.32821 | 38879 ft | 505 kts | 106° |
| 2026-04-23 14:11 | 2.20200 | 18.39638 | 38871 ft | 503 kts | 105° |
| 2026-04-23 14:12 | 2.18509 | 18.46435 | 38882 ft | 503 kts | 105° |
| 2026-04-23 14:12 | 2.16831 | 18.53249 | 38872 ft | 504 kts | 105° |
| 2026-04-23 14:13 | 2.15187 | 18.59993 | 38850 ft | 503 kts | 105° |
| 2026-04-23 14:13 | 2.13527 | 18.66809 | 38840 ft | 503 kts | 105° |
| 2026-04-23 14:14 | 2.11867 | 18.73614 | 38852 ft | 503 kts | 105° |
| 2026-04-23 14:14 | 2.10215 | 18.80383 | 38846 ft | 503 kts | 105° |
| 2026-04-23 14:15 | 2.08557 | 18.87178 | 38843 ft | 503 kts | 105° |
| 2026-04-23 14:15 | 2.06898 | 18.93974 | 38853 ft | 503 kts | 105° |
| 2026-04-23 14:16 | 2.05238 | 19.00770 | 38842 ft | 503 kts | 105° |
| 2026-04-23 14:16 | 2.03578 | 19.07569 | 38848 ft | 503 kts | 105° |
| 2026-04-23 14:17 | 2.01917 | 19.14369 | 38851 ft | 503 kts | 105° |
| 2026-04-23 14:17 | 2.00256 | 19.21150 | 38840 ft | 502 kts | 105° |
| 2026-04-23 14:18 | 1.98593 | 19.27886 | 38852 ft | 502 kts | 106° |
| 2026-04-23 14:18 | 1.96913 | 19.34681 | 38846 ft | 502 kts | 106° |
| 2026-04-23 14:19 | 1.95236 | 19.41465 | 38843 ft | 502 kts | 106° |
| 2026-04-23 14:19 | 1.93558 | 19.48256 | 38853 ft | 502 kts | 106° |
| 2026-04-23 14:20 | 1.91903 | 19.55011 | 38837 ft | 502 kts | 105° |
| 2026-04-23 14:20 | 1.90244 | 19.61798 | 38848 ft | 502 kts | 105° |
| 2026-04-23 14:21 | 1.88599 | 19.68526 | 38850 ft | 502 kts | 105° |
| 2026-04-23 14:21 | 1.86937 | 19.75322 | 38840 ft | 502 kts | 105° |
| 2026-04-23 14:22 | 1.85275 | 19.82122 | 38848 ft | 507 kts | 106° |
| 2026-04-23 14:22 | 1.83593 | 19.88989 | 38835 ft | 508 kts | 106° |
| 2026-04-23 14:23 | 1.81917 | 19.95809 | 38845 ft | 508 kts | 107° |
| 2026-04-23 14:23 | 1.80206 | 20.02674 | 38841 ft | 508 kts | 107° |
| 2026-04-23 14:24 | 1.78500 | 20.09494 | 38835 ft | 508 kts | 107° |
| 2026-04-23 14:24 | 1.76786 | 20.16347 | 38846 ft | 508 kts | 107° |
| 2026-04-23 14:25 | 1.75067 | 20.23224 | 38835 ft | 508 kts | 107° |
| 2026-04-23 14:25 | 1.73349 | 20.30097 | 38838 ft | 508 kts | 107° |
| 2026-04-23 14:26 | 1.71644 | 20.36916 | 38843 ft | 509 kts | 107° |
| 2026-04-23 14:26 | 1.69930 | 20.43769 | 38831 ft | 509 kts | 107° |
| 2026-04-23 14:27 | 1.68210 | 20.50643 | 38841 ft | 509 kts | 107° |
| 2026-04-23 14:27 | 1.66489 | 20.57524 | 38837 ft | 509 kts | 107° |
| 2026-04-23 14:28 | 1.64810 | 20.64353 | 38830 ft | 509 kts | 106° |
| 2026-04-23 14:28 | 1.63129 | 20.71253 | 38842 ft | 509 kts | 106° |
| 2026-04-23 14:29 | 1.61448 | 20.78150 | 38831 ft | 510 kts | 106° |
| 2026-04-23 14:29 | 1.59779 | 20.84994 | 38833 ft | 510 kts | 106° |
| 2026-04-23 14:30 | 1.58099 | 20.91877 | 38839 ft | 510 kts | 106° |
| 2026-04-23 14:30 | 1.56413 | 20.98781 | 38827 ft | 510 kts | 106° |
| 2026-04-23 14:31 | 1.54732 | 21.05667 | 38836 ft | 510 kts | 106° |
| 2026-04-23 14:31 | 1.53049 | 21.12561 | 38833 ft | 510 kts | 106° |
| 2026-04-23 14:32 | 1.51375 | 21.19415 | 38827 ft | 510 kts | 106° |
| 2026-04-23 14:32 | 1.49691 | 21.26308 | 38838 ft | 511 kts | 106° |
| 2026-04-23 14:33 | 1.48004 | 21.33214 | 38827 ft | 511 kts | 106° |
| 2026-04-23 14:33 | 1.46317 | 21.40119 | 38830 ft | 511 kts | 106° |
| 2026-04-23 14:34 | 1.44631 | 21.47016 | 38835 ft | 511 kts | 106° |
| 2026-04-23 14:34 | 1.42948 | 21.53884 | 38824 ft | 511 kts | 106° |
| 2026-04-23 14:35 | 1.41249 | 21.60768 | 38834 ft | 511 kts | 106° |
| 2026-04-23 14:35 | 1.39541 | 21.67680 | 38830 ft | 511 kts | 106° |
| 2026-04-23 14:36 | 1.37833 | 21.74592 | 38825 ft | 511 kts | 106° |
| 2026-04-23 14:36 | 1.36138 | 21.81455 | 38836 ft | 512 kts | 107° |
| 2026-04-23 14:37 | 1.34426 | 21.88385 | 38825 ft | 512 kts | 107° |
| 2026-04-23 14:37 | 1.32720 | 21.95290 | 38830 ft | 512 kts | 107° |
| 2026-04-23 14:38 | 1.31022 | 22.02163 | 38833 ft | 512 kts | 107° |
| 2026-04-23 14:38 | 1.29311 | 22.09082 | 38823 ft | 512 kts | 107° |
| 2026-04-23 14:39 | 1.27602 | 22.15995 | 38834 ft | 512 kts | 107° |
| 2026-04-23 14:39 | 1.25899 | 22.22884 | 38828 ft | 512 kts | 107° |
| 2026-04-23 14:40 | 1.24190 | 22.29796 | 38826 ft | 512 kts | 107° |
| 2026-04-23 14:40 | 1.22482 | 22.36707 | 38836 ft | 512 kts | 107° |
| 2026-04-23 14:41 | 1.20771 | 22.43624 | 38824 ft | 512 kts | 107° |
| 2026-04-23 14:41 | 1.19064 | 22.50525 | 38831 ft | 512 kts | 107° |
| 2026-04-23 14:42 | 1.17351 | 22.57448 | 38819 ft | 513 kts | 107° |
| 2026-04-23 14:42 | 1.15649 | 22.64331 | 38812 ft | 513 kts | 107° |
| 2026-04-23 14:43 | 1.13935 | 22.71258 | 38823 ft | 513 kts | 107° |
| 2026-04-23 14:43 | 1.12221 | 22.78185 | 38814 ft | 513 kts | 107° |
| 2026-04-23 14:44 | 1.10506 | 22.85116 | 38816 ft | 512 kts | 107° |
| 2026-04-23 14:44 | 1.08802 | 22.91999 | 38823 ft | 512 kts | 107° |
| 2026-04-23 14:45 | 1.07091 | 22.98911 | 38811 ft | 512 kts | 107° |
| 2026-04-23 14:45 | 1.05380 | 23.05824 | 38821 ft | 512 kts | 107° |
| 2026-04-23 14:46 | 1.03668 | 23.12738 | 38818 ft | 512 kts | 107° |
| 2026-04-23 14:46 | 1.01955 | 23.19657 | 38812 ft | 512 kts | 107° |
| 2026-04-23 14:47 | 1.00258 | 23.26514 | 38824 ft | 512 kts | 107° |
| 2026-04-23 14:47 | 0.98545 | 23.33430 | 38813 ft | 512 kts | 107° |
| 2026-04-23 14:48 | 0.96832 | 23.40344 | 38803 ft | 512 kts | 107° |
| 2026-04-23 14:48 | 0.95132 | 23.47208 | 38786 ft | 511 kts | 107° |
| 2026-04-23 14:49 | 0.93422 | 23.54115 | 38785 ft | 511 kts | 107° |
| 2026-04-23 14:49 | 0.91709 | 23.61029 | 38794 ft | 511 kts | 107° |
| 2026-04-23 14:50 | 0.90000 | 23.67925 | 38782 ft | 511 kts | 107° |
| 2026-04-23 14:50 | 0.88301 | 23.74785 | 38790 ft | 511 kts | 107° |
| 2026-04-23 14:51 | 0.86592 | 23.81679 | 38790 ft | 511 kts | 107° |
| 2026-04-23 14:51 | 0.84880 | 23.88589 | 38782 ft | 511 kts | 107° |
| 2026-04-23 14:52 | 0.83174 | 23.95473 | 38794 ft | 511 kts | 107° |
| 2026-04-23 14:52 | 0.81461 | 24.02382 | 38785 ft | 511 kts | 107° |
| 2026-04-23 14:53 | 0.79753 | 24.09275 | 38786 ft | 511 kts | 107° |
| 2026-04-23 14:53 | 0.78056 | 24.16121 | 38794 ft | 511 kts | 107° |
| 2026-04-23 14:54 | 0.76344 | 24.23024 | 38782 ft | 511 kts | 107° |
| 2026-04-23 14:54 | 0.74922 | 24.28764 | 38788 ft | 510 kts | 107° |
| 2026-04-23 14:55 | 0.72928 | 24.36803 | 38790 ft | 510 kts | 107° |
| 2026-04-23 14:55 | 0.71230 | 24.43654 | 38782 ft | 510 kts | 107° |
| 2026-04-23 14:56 | 0.69810 | 24.49379 | 38793 ft | 510 kts | 107° |
| 2026-04-23 14:56 | 0.68111 | 24.56257 | 38787 ft | 510 kts | 107° |
| 2026-04-23 14:57 | 0.66420 | 24.63147 | 38785 ft | 510 kts | 107° |
| 2026-04-23 14:57 | 0.64730 | 24.70039 | 38796 ft | 510 kts | 107° |
| 2026-04-23 14:58 | 0.63036 | 24.76948 | 38784 ft | 510 kts | 107° |
| 2026-04-23 14:58 | 0.61347 | 24.83832 | 38789 ft | 510 kts | 107° |
| 2026-04-23 14:59 | 0.59671 | 24.90663 | 38793 ft | 510 kts | 107° |
| 2026-04-23 14:59 | 0.57983 | 24.97543 | 38782 ft | 510 kts | 107° |
| 2026-04-23 15:00 | 0.56298 | 25.04407 | 38792 ft | 509 kts | 107° |
| 2026-04-23 15:00 | 0.54611 | 25.11277 | 38793 ft | 510 kts | 106° |
| 2026-04-23 15:01 | 0.52915 | 25.18187 | 38795 ft | 511 kts | 106° |
| 2026-04-23 15:01 | 0.51228 | 25.25072 | 38794 ft | 510 kts | 106° |
| 2026-04-23 15:02 | 0.49794 | 25.32019 | 38790 ft | 513 kts | 101° |
| 2026-04-23 15:02 | 0.49110 | 25.39140 | 38790 ft | 515 kts | 97° |
| 2026-04-23 15:03 | 0.48640 | 25.46266 | 38902 ft | 509 kts | 92° |
| 2026-04-23 15:03 | 0.48218 | 25.53340 | 38982 ft | 512 kts | 92° |
| 2026-04-23 15:04 | 0.47794 | 25.60440 | 38881 ft | 515 kts | 94° |
| 2026-04-23 15:04 | 0.47350 | 25.67571 | 38847 ft | 515 kts | 94° |
| 2026-04-23 15:05 | 0.46900 | 25.74724 | 38836 ft | 516 kts | 94° |
| 2026-04-23 15:05 | 0.46453 | 25.81912 | 38809 ft | 518 kts | 95° |
| 2026-04-23 15:06 | 0.46002 | 25.89097 | 38791 ft | 517 kts | 95° |
| 2026-04-23 15:06 | 0.45552 | 25.96223 | 38782 ft | 517 kts | 95° |
| 2026-04-23 15:07 | 0.45102 | 26.03392 | 38793 ft | 517 kts | 95° |
| 2026-04-23 15:07 | 0.44652 | 26.10581 | 38789 ft | 517 kts | 95° |
| 2026-04-23 15:08 | 0.44205 | 26.17735 | 38782 ft | 516 kts | 95° |
| 2026-04-23 15:09 | 0.43543 | 26.28516 | 38805 ft | 520 kts | 94° |
| 2026-04-23 15:09 | 0.43104 | 26.35733 | 38819 ft | 520 kts | 94° |
| 2026-04-23 15:10 | 0.42739 | 26.41721 | 38820 ft | 520 kts | 94° |
| 2026-04-23 15:10 | 0.42226 | 26.50113 | 38828 ft | 521 kts | 94° |
| 2026-04-23 15:11 | 0.41780 | 26.57391 | 38853 ft | 523 kts | 94° |
| 2026-04-23 15:11 | 0.41335 | 26.64650 | 38873 ft | 523 kts | 94° |
| 2026-04-23 15:12 | 0.40890 | 26.71905 | 38886 ft | 523 kts | 94° |
| 2026-04-23 15:12 | 0.40448 | 26.79116 | 38888 ft | 523 kts | 94° |
| 2026-04-23 15:13 | 0.40004 | 26.86373 | 38888 ft | 523 kts | 94° |
| 2026-04-23 15:13 | 0.39556 | 26.93678 | 38899 ft | 524 kts | 94° |
| 2026-04-23 15:14 | 0.39110 | 27.00954 | 38891 ft | 524 kts | 94° |
| 2026-04-23 15:14 | 0.38675 | 27.08057 | 38904 ft | 525 kts | 94° |
| 2026-04-23 15:15 | 0.38230 | 27.15336 | 38912 ft | 525 kts | 94° |
| 2026-04-23 15:15 | 0.37783 | 27.22622 | 38900 ft | 525 kts | 94° |
| 2026-04-23 15:16 | 0.37337 | 27.29903 | 38909 ft | 525 kts | 94° |
| 2026-04-23 15:16 | 0.36899 | 27.37041 | 38908 ft | 525 kts | 94° |
| 2026-04-23 15:17 | 0.36452 | 27.44330 | 38900 ft | 525 kts | 94° |
| 2026-04-23 15:17 | 0.36006 | 27.51606 | 38912 ft | 525 kts | 94° |
| 2026-04-23 15:18 | 0.35559 | 27.58866 | 38903 ft | 526 kts | 94° |
| 2026-04-23 15:18 | 0.35113 | 27.66148 | 38904 ft | 526 kts | 94° |
| 2026-04-23 15:19 | 0.34666 | 27.73442 | 38912 ft | 526 kts | 94° |
| 2026-04-23 15:19 | 0.34218 | 27.80738 | 38900 ft | 526 kts | 94° |
| 2026-04-23 15:20 | 0.33844 | 27.86839 | 38907 ft | 525 kts | 94° |
| 2026-04-23 15:20 | 0.33323 | 27.95316 | 38908 ft | 526 kts | 94° |
| 2026-04-23 15:21 | 0.32873 | 28.02650 | 38902 ft | 525 kts | 94° |
| 2026-04-23 15:21 | 0.32425 | 28.09946 | 38920 ft | 525 kts | 94° |
| 2026-04-23 15:22 | 0.31977 | 28.17232 | 38927 ft | 525 kts | 94° |
| 2026-04-23 15:22 | 0.31530 | 28.24517 | 38922 ft | 525 kts | 94° |
| 2026-04-23 15:23 | 0.31082 | 28.31798 | 38936 ft | 525 kts | 94° |
| 2026-04-23 15:23 | 0.30632 | 28.39135 | 38948 ft | 525 kts | 94° |
| 2026-04-23 15:24 | 0.30182 | 28.46468 | 38958 ft | 525 kts | 95° |
| 2026-04-23 15:24 | 0.29734 | 28.53789 | 38986 ft | 525 kts | 95° |
| 2026-04-23 15:25 | 0.29283 | 28.61098 | 39015 ft | 525 kts | 95° |
| 2026-04-23 15:25 | 0.28909 | 28.67151 | 39030 ft | 525 kts | 95° |
| 2026-04-23 15:26 | 0.28456 | 28.74522 | 39032 ft | 524 kts | 95° |
| 2026-04-23 15:26 | 0.28009 | 28.81794 | 39013 ft | 523 kts | 95° |
| 2026-04-23 15:27 | 0.27490 | 28.90230 | 39019 ft | 524 kts | 95° |
| 2026-04-23 15:27 | 0.27116 | 28.96311 | 39025 ft | 524 kts | 95° |
| 2026-04-23 15:28 | 0.26670 | 29.03579 | 39011 ft | 524 kts | 95° |
| 2026-04-23 15:28 | 0.26223 | 29.10849 | 39012 ft | 525 kts | 95° |
| 2026-04-23 15:29 | 0.25775 | 29.18135 | 39006 ft | 525 kts | 96° |
| 2026-04-23 15:29 | 0.25329 | 29.25379 | 38995 ft | 525 kts | 96° |
| 2026-04-23 15:30 | 0.24882 | 29.32648 | 39003 ft | 524 kts | 96° |
| 2026-04-23 15:30 | 0.24375 | 29.39921 | 38997 ft | 525 kts | 97° |
| 2026-04-23 15:31 | 0.23877 | 29.47208 | 38995 ft | 525 kts | 96° |
| 2026-04-23 15:31 | 0.23443 | 29.54493 | 39005 ft | 525 kts | 96° |
| 2026-04-23 15:32 | 0.23016 | 29.61784 | 38994 ft | 525 kts | 95° |
| 2026-04-23 15:32 | 0.22586 | 29.69058 | 38999 ft | 525 kts | 95° |
| 2026-04-23 15:33 | 0.22153 | 29.76355 | 39001 ft | 525 kts | 95° |
| 2026-04-23 15:33 | 0.21719 | 29.83643 | 38990 ft | 525 kts | 95° |
| 2026-04-23 15:34 | 0.21288 | 29.90934 | 39002 ft | 525 kts | 95° |
| 2026-04-23 15:34 | 0.20865 | 29.98231 | 38994 ft | 525 kts | 95° |
| 2026-04-23 15:35 | 0.20449 | 30.05503 | 39000 ft | 523 kts | 96° |
| 2026-04-23 15:35 | 0.20033 | 30.12720 | 39008 ft | 523 kts | 96° |
| 2026-04-23 15:36 | 0.19613 | 30.19986 | 38997 ft | 524 kts | 96° |
| 2026-04-23 15:36 | 0.19192 | 30.27260 | 39009 ft | 524 kts | 96° |
| 2026-04-23 15:37 | 0.18774 | 30.34521 | 39011 ft | 524 kts | 96° |
| 2026-04-23 15:37 | 0.18355 | 30.41788 | 39003 ft | 524 kts | 96° |
| 2026-04-23 15:38 | 0.17935 | 30.49059 | 39016 ft | 524 kts | 96° |
| 2026-04-23 15:38 | 0.17517 | 30.56310 | 38998 ft | 523 kts | 95° |
| 2026-04-23 15:39 | 0.17074 | 30.63524 | 38981 ft | 522 kts | 95° |
| 2026-04-23 15:39 | 0.16599 | 30.70760 | 38972 ft | 521 kts | 95° |
| 2026-04-23 15:40 | 0.16123 | 30.77969 | 38979 ft | 520 kts | 95° |
| 2026-04-23 15:40 | 0.15650 | 30.85176 | 38966 ft | 519 kts | 95° |
| 2026-04-23 15:41 | 0.15179 | 30.92368 | 38968 ft | 519 kts | 95° |
| 2026-04-23 15:41 | 0.14707 | 30.99574 | 38972 ft | 520 kts | 95° |
| 2026-04-23 15:42 | 0.14236 | 31.06779 | 38961 ft | 519 kts | 95° |
| 2026-04-23 15:42 | 0.13763 | 31.13991 | 38971 ft | 521 kts | 94° |
| 2026-04-23 15:43 | 0.13291 | 31.21212 | 38967 ft | 521 kts | 94° |
| 2026-04-23 15:43 | 0.12818 | 31.28431 | 38963 ft | 520 kts | 94° |
| 2026-04-23 15:44 | 0.12349 | 31.35604 | 38974 ft | 521 kts | 94° |
| 2026-04-23 15:44 | 0.11876 | 31.42826 | 38963 ft | 520 kts | 94° |
| 2026-04-23 15:45 | 0.11406 | 31.50035 | 38962 ft | 520 kts | 94° |
| 2026-04-23 15:45 | 0.10938 | 31.57242 | 38971 ft | 520 kts | 94° |
| 2026-04-23 15:46 | 0.10470 | 31.64440 | 38959 ft | 519 kts | 94° |
| 2026-04-23 15:46 | 0.10002 | 31.71637 | 38967 ft | 519 kts | 94° |
| 2026-04-23 15:47 | 0.09533 | 31.78841 | 38967 ft | 519 kts | 94° |
| 2026-04-23 15:47 | 0.09063 | 31.86051 | 38959 ft | 519 kts | 94° |
| 2026-04-23 15:48 | 0.08594 | 31.93251 | 38971 ft | 519 kts | 94° |
| 2026-04-23 15:48 | 0.08125 | 32.00441 | 38962 ft | 519 kts | 94° |
| 2026-04-23 15:49 | 0.07659 | 32.07589 | 38963 ft | 519 kts | 94° |
| 2026-04-23 15:49 | 0.07189 | 32.14791 | 38971 ft | 519 kts | 94° |
| 2026-04-23 15:50 | 0.06719 | 32.21992 | 38959 ft | 519 kts | 94° |
| 2026-04-23 15:50 | 0.06250 | 32.29184 | 38968 ft | 519 kts | 94° |
| 2026-04-23 15:51 | 0.05781 | 32.36377 | 38967 ft | 519 kts | 94° |
| 2026-04-23 15:51 | 0.04852 | 32.43464 | 38968 ft | 518 kts | 102° |
| 2026-04-23 15:52 | 0.03133 | 32.50457 | 38965 ft | 518 kts | 106° |
| 2026-04-23 15:52 | 0.01091 | 32.57363 | 38959 ft | 518 kts | 108° |
| 2026-04-23 15:53 | -0.01043 | 32.64234 | 38971 ft | 518 kts | 108° |
| 2026-04-23 15:53 | -0.03188 | 32.71111 | 38961 ft | 518 kts | 108° |
| 2026-04-23 15:54 | -0.05329 | 32.77986 | 38964 ft | 518 kts | 108° |
| 2026-04-23 15:54 | -0.07453 | 32.84817 | 38970 ft | 518 kts | 108° |
| 2026-04-23 15:55 | -0.09588 | 32.91688 | 38959 ft | 518 kts | 108° |
| 2026-04-23 15:55 | -0.11720 | 32.98550 | 38969 ft | 518 kts | 108° |
| 2026-04-23 15:56 | -0.13859 | 33.05430 | 38971 ft | 519 kts | 108° |
| 2026-04-23 15:56 | -0.15998 | 33.12312 | 38974 ft | 519 kts | 108° |
| 2026-04-23 15:57 | -0.18135 | 33.19191 | 38986 ft | 519 kts | 108° |
| 2026-04-23 15:57 | -0.20279 | 33.26089 | 38992 ft | 519 kts | 108° |
| 2026-04-23 15:58 | -0.22423 | 33.32987 | 39005 ft | 520 kts | 108° |
| 2026-04-23 15:58 | -0.24563 | 33.39875 | 39020 ft | 520 kts | 108° |
| 2026-04-23 15:59 | -0.26731 | 33.46797 | 39036 ft | 520 kts | 109° |
| 2026-04-23 15:59 | -0.28982 | 33.53633 | 39057 ft | 522 kts | 109° |
| 2026-04-23 16:00 | -0.31283 | 33.60517 | 39087 ft | 522 kts | 109° |
| 2026-04-23 16:00 | -0.33582 | 33.67398 | 39110 ft | 522 kts | 109° |
| 2026-04-23 16:01 | -0.35876 | 33.74277 | 39129 ft | 522 kts | 109° |
| 2026-04-23 16:01 | -0.38172 | 33.81163 | 39143 ft | 522 kts | 109° |
| 2026-04-23 16:02 | -0.40466 | 33.88046 | 39149 ft | 523 kts | 109° |
| 2026-04-23 16:02 | -0.42758 | 33.94938 | 39134 ft | 523 kts | 108° |
| 2026-04-23 16:03 | -0.44806 | 34.01916 | 39135 ft | 524 kts | 106° |
| 2026-04-23 16:03 | -0.46727 | 34.08952 | 39129 ft | 525 kts | 106° |
| 2026-04-23 16:04 | -0.48633 | 34.15962 | 39114 ft | 525 kts | 106° |
| 2026-04-23 16:04 | -0.50562 | 34.23015 | 39101 ft | 526 kts | 106° |
| 2026-04-23 16:05 | -0.52171 | 34.28884 | 39088 ft | 527 kts | 106° |
| 2026-04-23 16:05 | -0.54438 | 34.37150 | 39034 ft | 528 kts | 107° |
| 2026-04-23 16:06 | -0.56381 | 34.44238 | 39011 ft | 530 kts | 107° |
| 2026-04-23 16:06 | -0.58331 | 34.51348 | 38988 ft | 531 kts | 107° |
| 2026-04-23 16:07 | -0.60301 | 34.58481 | 38962 ft | 532 kts | 108° |
| 2026-04-23 16:07 | -0.62387 | 34.65579 | 38943 ft | 533 kts | 108° |
| 2026-04-23 16:08 | -0.64509 | 34.72670 | 38934 ft | 533 kts | 109° |
| 2026-04-23 16:08 | -0.66616 | 34.79718 | 38945 ft | 532 kts | 109° |
| 2026-04-23 16:09 | -0.68732 | 34.86811 | 38941 ft | 533 kts | 108° |
| 2026-04-23 16:09 | -0.70851 | 34.93921 | 38944 ft | 533 kts | 108° |
| 2026-04-23 16:10 | -0.72963 | 35.01011 | 38962 ft | 533 kts | 108° |
| 2026-04-23 16:10 | -0.75080 | 35.08120 | 38976 ft | 533 kts | 108° |
| 2026-04-23 16:10 | -0.76137 | 35.11668 | 38775 ft | 536 kts | 108° |
| 2026-04-23 16:11 | -0.77204 | 35.15249 | 38412 ft | 536 kts | 108° |
| 2026-04-23 16:11 | -0.78267 | 35.18819 | 37770 ft | 537 kts | 108° |
| 2026-04-23 16:11 | -0.78971 | 35.21184 | 37306 ft | 535 kts | 108° |
| 2026-04-23 16:11 | -0.80029 | 35.24736 | 36581 ft | 533 kts | 108° |
| 2026-04-23 16:12 | -0.81442 | 35.29484 | 35586 ft | 530 kts | 108° |
| 2026-04-23 16:12 | -0.82137 | 35.31814 | 35095 ft | 527 kts | 108° |
| 2026-04-23 16:12 | -0.83349 | 35.35232 | 34385 ft | 519 kts | 112° |
| 2026-04-23 16:12 | -0.84750 | 35.38524 | 33749 ft | 514 kts | 115° |
| 2026-04-23 16:13 | -0.86263 | 35.41780 | 33124 ft | 518 kts | 116° |
| 2026-04-23 16:13 | -0.89503 | 35.48295 | 31836 ft | 526 kts | 117° |
| 2026-04-23 16:13 | -0.91156 | 35.51529 | 31181 ft | 518 kts | 117° |
| 2026-04-23 16:14 | -0.92785 | 35.54701 | 30537 ft | 507 kts | 117° |
| 2026-04-23 16:14 | -0.94380 | 35.57805 | 29911 ft | 496 kts | 117° |
| 2026-04-23 16:14 | -0.95940 | 35.60845 | 29299 ft | 486 kts | 117° |
| 2026-04-23 16:14 | -0.97467 | 35.63823 | 28700 ft | 477 kts | 116° |
| 2026-04-23 16:15 | -0.98976 | 35.66770 | 28112 ft | 477 kts | 116° |
| 2026-04-23 16:15 | -1.00501 | 35.69752 | 27520 ft | 487 kts | 116° |
| 2026-04-23 16:15 | -1.02047 | 35.72776 | 26911 ft | 489 kts | 116° |
| 2026-04-23 16:15 | -1.03589 | 35.75792 | 26298 ft | 486 kts | 116° |
| 2026-04-23 16:16 | -1.05111 | 35.78768 | 25696 ft | 486 kts | 116° |
| 2026-04-23 16:16 | -1.06647 | 35.81772 | 25089 ft | 484 kts | 116° |
| 2026-04-23 16:16 | -1.08180 | 35.84772 | 24482 ft | 486 kts | 117° |
| 2026-04-23 16:16 | -1.09702 | 35.87749 | 23881 ft | 487 kts | 117° |
| 2026-04-23 16:17 | -1.11243 | 35.90763 | 23273 ft | 487 kts | 117° |
| 2026-04-23 16:17 | -1.12796 | 35.93797 | 22662 ft | 482 kts | 117° |
| 2026-04-23 16:17 | -1.14294 | 35.96726 | 22072 ft | 477 kts | 117° |
| 2026-04-23 16:17 | -1.15816 | 35.99698 | 21475 ft | 472 kts | 117° |
| 2026-04-23 16:18 | -1.17274 | 36.02547 | 20904 ft | 460 kts | 117° |
| 2026-04-23 16:18 | -1.18707 | 36.05348 | 20343 ft | 446 kts | 117° |
| 2026-04-23 16:18 | -1.20100 | 36.08071 | 19797 ft | 434 kts | 116° |
| 2026-04-23 16:18 | -1.21455 | 36.10720 | 19268 ft | 422 kts | 116° |
| 2026-04-23 16:19 | -1.22776 | 36.13303 | 18754 ft | 411 kts | 116° |
| 2026-04-23 16:19 | -1.24064 | 36.15821 | 18254 ft | 402 kts | 116° |
| 2026-04-23 16:19 | -1.25327 | 36.18289 | 17762 ft | 396 kts | 116° |
| 2026-04-23 16:19 | -1.26576 | 36.20733 | 17281 ft | 392 kts | 116° |
| 2026-04-23 16:20 | -1.27820 | 36.23165 | 16803 ft | 392 kts | 116° |
| 2026-04-23 16:20 | -1.29051 | 36.25571 | 16323 ft | 385 kts | 116° |
| 2026-04-23 16:20 | -1.30257 | 36.27930 | 15853 ft | 377 kts | 116° |
| 2026-04-23 16:20 | -1.31435 | 36.30235 | 15396 ft | 370 kts | 116° |
| 2026-04-23 16:21 | -1.32582 | 36.32476 | 14954 ft | 363 kts | 116° |
| 2026-04-23 16:21 | -1.33731 | 36.34724 | 14454 ft | 354 kts | 116° |
| 2026-04-23 16:21 | -1.34760 | 36.36856 | 14005 ft | 336 kts | 111° |
| 2026-04-23 16:21 | -1.35420 | 36.39063 | 13630 ft | 318 kts | 104° |
| 2026-04-23 16:22 | -1.35912 | 36.41181 | 13367 ft | 311 kts | 102° |
| 2026-04-23 16:22 | -1.36363 | 36.43255 | 13039 ft | 308 kts | 102° |
| 2026-04-23 16:22 | -1.36806 | 36.45327 | 12807 ft | 301 kts | 102° |
| 2026-04-23 16:22 | -1.37241 | 36.47359 | 12577 ft | 297 kts | 102° |
| 2026-04-23 16:23 | -1.37674 | 36.49376 | 12335 ft | 296 kts | 102° |
| 2026-04-23 16:23 | -1.38105 | 36.51384 | 12080 ft | 294 kts | 102° |
| 2026-04-23 16:23 | -1.38532 | 36.53366 | 11819 ft | 290 kts | 102° |
| 2026-04-23 16:23 | -1.38948 | 36.55297 | 11488 ft | 278 kts | 102° |
| 2026-04-23 16:24 | -1.39344 | 36.57138 | 11298 ft | 265 kts | 102° |
| 2026-04-23 16:24 | -1.39730 | 36.58930 | 11084 ft | 261 kts | 102° |
| 2026-04-23 16:24 | -1.40107 | 36.60677 | 10815 ft | 254 kts | 102° |
| 2026-04-23 16:24 | -1.40471 | 36.62372 | 10575 ft | 245 kts | 102° |
| 2026-04-23 16:25 | -1.40818 | 36.63983 | 10397 ft | 235 kts | 102° |
| 2026-04-23 16:25 | -1.41154 | 36.65541 | 10274 ft | 225 kts | 102° |
| 2026-04-23 16:25 | -1.41483 | 36.67070 | 10087 ft | 219 kts | 102° |
| 2026-04-23 16:25 | -1.41803 | 36.68555 | 9832 ft | 218 kts | 102° |
| 2026-04-23 16:26 | -1.42122 | 36.70037 | 9552 ft | 218 kts | 102° |
| 2026-04-23 16:26 | -1.42437 | 36.71495 | 9312 ft | 215 kts | 102° |
| 2026-04-23 16:26 | -1.42742 | 36.72911 | 9171 ft | 201 kts | 102° |
| 2026-04-23 16:26 | -1.43029 | 36.74246 | 8999 ft | 192 kts | 102° |
| 2026-04-23 16:27 | -1.43305 | 36.75528 | 8826 ft | 187 kts | 102° |
| 2026-04-23 16:27 | -1.43400 | 36.76789 | 8623 ft | 181 kts | 88° |
| 2026-04-23 16:27 | -1.42847 | 36.77880 | 8479 ft | 171 kts | 60° |
| 2026-04-23 16:27 | -1.42169 | 36.78771 | 8449 ft | 156 kts | 56° |
| 2026-04-23 16:28 | -1.41518 | 36.79631 | 8266 ft | 153 kts | 56° |
| 2026-04-23 16:28 | -1.40890 | 36.80470 | 8063 ft | 150 kts | 56° |
| 2026-04-23 16:28 | -1.40268 | 36.81312 | 7854 ft | 150 kts | 56° |
| 2026-04-23 16:28 | -1.39656 | 36.82145 | 7645 ft | 149 kts | 56° |
| 2026-04-23 16:29 | -1.39039 | 36.82993 | 7438 ft | 149 kts | 57° |
| 2026-04-23 16:29 | -1.38431 | 36.83833 | 7237 ft | 149 kts | 57° |
| 2026-04-23 16:29 | -1.37833 | 36.84662 | 7035 ft | 149 kts | 57° |
| 2026-04-23 16:29 | -1.37229 | 36.85496 | 6843 ft | 148 kts | 57° |
| 2026-04-23 16:30 | -1.36623 | 36.86331 | 6644 ft | 148 kts | 57° |
| 2026-04-23 16:30 | -1.36019 | 36.87158 | 6466 ft | 149 kts | 57° |
| 2026-04-23 16:30 | -1.35382 | 36.87990 | 6242 ft | 151 kts | 56° |
| 2026-04-23 16:30 | -1.34767 | 36.88832 | 6045 ft | 150 kts | 56° |
| 2026-04-23 16:31 | -1.34169 | 36.89674 | 5861 ft | 148 kts | 55° |
| 2026-04-23 16:31 | -1.33580 | 36.90516 | 5653 ft | 147 kts | 54° |
| 2026-04-23 16:31 | -1.32979 | 36.91339 | 5463 ft | 144 kts | 53° |
| 2026-04-23 16:31 | -1.32422 | 36.92106 | 5342 ft | 123 kts | 50° |
| 2026-04-23 16:32 | -1.31986 | 36.92703 | 5342 ft | 92 kts | 50° |
| 2026-04-23 16:32 | -1.31677 | 36.93116 | 5342 ft | 54 kts | 56° |
| 2026-04-23 16:32 | -1.31517 | 36.93343 | 5341 ft | 35 kts | 54° |
| 2026-04-23 16:32 | -1.31374 | 36.93539 | 5341 ft | 35 kts | 54° |
| 2026-04-23 16:33 | -1.31241 | 36.93722 | 5341 ft | 21 kts | 54° |
| 2026-04-23 16:33 | -1.31192 | 36.93790 | 5341 ft | 13 kts | 56° |
| 2026-04-23 16:33 | -1.31186 | 36.93824 | 5341 ft | 5 kts | 111° |
| 2026-04-23 16:33 | -1.31215 | 36.93863 | 5341 ft | 9 kts | 131° |
| 2026-04-23 16:34 | -1.31280 | 36.93911 | 5341 ft | 14 kts | 145° |
| 2026-04-23 16:34 | -1.31336 | 36.93950 | 5341 ft | 8 kts | 145° |
| 2026-04-23 16:34 | -1.31339 | 36.93953 | 5341 ft | 0 kts | 145° |
| 2026-04-23 16:35 | -1.31340 | 36.93953 | 5341 ft | 1 kts | 145° |
| 2026-04-23 16:35 | -1.31361 | 36.93968 | 5341 ft | 6 kts | 143° |
| 2026-04-23 16:35 | -1.31397 | 36.93993 | 5341 ft | 5 kts | 150° |
| 2026-04-23 16:36 | -1.31436 | 36.93994 | 5341 ft | 6 kts | 204° |
| 2026-04-23 16:36 | -1.31474 | 36.93960 | 5341 ft | 9 kts | 231° |
| 2026-04-23 16:36 | -1.31522 | 36.93895 | 5341 ft | 14 kts | 234° |
| 2026-04-23 16:36 | -1.31585 | 36.93808 | 5341 ft | 17 kts | 234° |
| 2026-04-23 16:37 | -1.31663 | 36.93701 | 5341 ft | 17 kts | 234° |
| 2026-04-23 16:37 | -1.31741 | 36.93594 | 5341 ft | 21 kts | 234° |
| 2026-04-23 16:37 | -1.31815 | 36.93492 | 5341 ft | 17 kts | 234° |
| 2026-04-23 16:37 | -1.31892 | 36.93387 | 5341 ft | 20 kts | 234° |
| 2026-04-23 16:38 | -1.31979 | 36.93267 | 5341 ft | 22 kts | 234° |
| 2026-04-23 16:38 | -1.32071 | 36.93143 | 5341 ft | 20 kts | 234° |
| 2026-04-23 16:38 | -1.32143 | 36.93044 | 5341 ft | 18 kts | 234° |
| 2026-04-23 16:38 | -1.32214 | 36.92946 | 5341 ft | 18 kts | 234° |
| 2026-04-23 16:39 | -1.32281 | 36.92853 | 5341 ft | 10 kts | 235° |
| 2026-04-23 16:39 | -1.32329 | 36.92786 | 5341 ft | 14 kts | 234° |
| 2026-04-23 16:39 | -1.32394 | 36.92697 | 5341 ft | 18 kts | 233° |
| 2026-04-23 16:39 | -1.32475 | 36.92586 | 5341 ft | 21 kts | 234° |
| 2026-04-23 16:40 | -1.32542 | 36.92491 | 5341 ft | 14 kts | 234° |
| 2026-04-23 16:40 | -1.32607 | 36.92399 | 5341 ft | 17 kts | 233° |
| 2026-04-23 16:40 | -1.32662 | 36.92325 | 5341 ft | 13 kts | 233° |
| 2026-04-23 16:40 | -1.32712 | 36.92256 | 5341 ft | 10 kts | 233° |
| 2026-04-23 16:41 | -1.32759 | 36.92211 | 5341 ft | 10 kts | 201° |
| 2026-04-23 16:41 | -1.32816 | 36.92225 | 5341 ft | 8 kts | 151° |
| 2026-04-23 16:41 | -1.32856 | 36.92252 | 5341 ft | 9 kts | 146° |
| 2026-04-23 16:41 | -1.32917 | 36.92250 | 5341 ft | 11 kts | 207° |
| 2026-04-23 16:42 | -1.32993 | 36.92224 | 5341 ft | 13 kts | 191° |
| 2026-04-23 16:42 | -1.33078 | 36.92219 | 5341 ft | 12 kts | 176° |
| 2026-04-23 16:42 | -1.33154 | 36.92237 | 5341 ft | 11 kts | 160° |
| 2026-04-23 16:42 | -1.33234 | 36.92274 | 5341 ft | 14 kts | 166° |
| 2026-04-23 16:43 | -1.33295 | 36.92280 | 5341 ft | 9 kts | 179° |
| 2026-04-23 16:43 | -1.33356 | 36.92292 | 5341 ft | 9 kts | 157° |
| 2026-04-23 16:43 | -1.33404 | 36.92322 | 5341 ft | 7 kts | 143° |
| 2026-04-23 16:43 | -1.33431 | 36.92348 | 5341 ft | 7 kts | 129° |
| 2026-04-23 16:44 | -1.33438 | 36.92369 | 5341 ft | 1 kts | 89° |
| 2026-04-23 16:44 | -1.33435 | 36.92374 | 5341 ft | 1 kts | 57° |
| 2026-04-23 16:44 | -1.33430 | 36.92376 | 5341 ft | 1 kts | 24° |
| 2026-04-23 16:44 | -1.33416 | 36.92379 | 5341 ft | 4 kts | 13° |
| 2026-04-23 16:45 | -1.33384 | 36.92388 | 5341 ft | 5 kts | 17° |
| 2026-04-23 16:45 | -1.33366 | 36.92393 | 5341 ft | 1 kts | 18° |
| 2026-04-23 16:45 | -1.33358 | 36.92396 | 5341 ft | 0 kts | 18° |
| 2026-04-23 16:45 | -1.33357 | 36.92396 | 5341 ft | 0 kts | 18° |